Time;durP1;ratioP1;P1;durP2;ratioP2;P2;SDS_P1;SDS_P2;PMS_P1;PMS_P2;Temp;Humidity;BMP_temperature;BMP_pressure;BME280_temperature;BME280_humidity;BME280_pressure;Samples;Min_cycle;Max_cycle;Signal;HPM_P1;HPM_P2
2022/12/01 00:01:11;;;;;;;4.80;1.60;;;24.20;68.30;;;;;;5068880;28;20045;-77
2022/12/01 00:03:38;;;;;;;5.57;1.75;;;24.20;68.10;;;;;;5070715;28;20029;-78
2022/12/01 00:06:16;;;;;;;4.70;2.10;;;24.10;68.10;;;;;;5068423;28;20108;-78
2022/12/01 00:11:29;;;;;;;5.85;1.50;;;24.10;68.00;;;;;;5067881;28;20390;-77
2022/12/01 00:13:56;;;;;;;5.32;1.85;;;24.10;68.00;;;;;;5068897;28;20217;-76
2022/12/01 00:16:22;;;;;;;6.30;2.38;;;24.10;68.00;;;;;;5067244;28;20405;-77
2022/12/01 00:18:50;;;;;;;4.07;1.58;;;24.10;68.00;;;;;;5068864;28;20091;-75
2022/12/01 00:21:19;;;;;;;5.95;1.65;;;24.10;68.10;;;;;;5067895;28;20047;-77
2022/12/01 00:23:47;;;;;;;4.07;1.63;;;24.10;68.10;;;;;;5067888;28;20020;-78
2022/12/01 00:26:15;;;;;;;4.97;1.65;;;24.00;68.20;;;;;;5068413;28;20031;-76
2022/12/01 00:28:42;;;;;;;3.65;1.90;;;24.00;68.10;;;;;;5069619;28;20020;-76
2022/12/01 00:31:10;;;;;;;6.20;1.63;;;24.00;68.30;;;;;;5067250;28;20429;-77
2022/12/01 00:33:36;;;;;;;7.60;1.75;;;24.00;68.30;;;;;;5069922;28;20063;-76
2022/12/01 00:36:04;;;;;;;7.25;1.88;;;24.00;68.40;;;;;;5069139;28;20025;-76
2022/12/01 00:38:31;;;;;;;4.90;1.95;;;24.00;68.40;;;;;;5070736;28;20119;-78
2022/12/01 00:40:58;;;;;;;5.03;1.65;;;24.00;68.50;;;;;;5066704;28;20040;-77
2022/12/01 00:43:24;;;;;;;4.53;1.52;;;24.00;68.50;;;;;;5063543;28;20016;-78
2022/12/01 00:45:51;;;;;;;7.10;2.35;;;24.00;69.20;;;;;;5068546;28;20027;-77
2022/12/01 00:48:18;;;;;;;6.35;1.75;;;24.00;69.30;;;;;;5068821;28;20474;-77
2022/12/01 00:50:45;;;;;;;7.35;2.28;;;24.00;69.60;;;;;;5069805;28;20035;-77
2022/12/01 00:53:11;;;;;;;4.28;1.50;;;24.00;69.80;;;;;;5067022;28;20628;-77
2022/12/01 00:55:39;;;;;;;13.52;4.88;;;24.00;69.80;;;;;;5069353;28;20024;-76
2022/12/01 00:58:06;;;;;;;5.93;1.73;;;24.00;70.10;;;;;;5068241;28;20115;-76
2022/12/01 01:00:33;;;;;;;5.78;2.42;;;23.90;70.60;;;;;;5067719;28;20024;-78
2022/12/01 01:02:59;;;;;;;4.30;1.23;;;23.90;70.70;;;;;;5068009;28;20029;-77
2022/12/01 01:05:26;;;;;;;6.50;1.83;;;23.90;70.70;;;;;;5069605;28;20058;-76
2022/12/01 01:07:52;;;;;;;7.85;2.47;;;24.00;70.70;;;;;;5068590;28;20016;-77
2022/12/01 01:10:19;;;;;;;5.78;2.05;;;23.90;70.50;;;;;;5067503;28;20024;-77
2022/12/01 01:12:45;;;;;;;3.70;1.73;;;23.90;70.30;;;;;;5068661;28;20028;-77
2022/12/01 01:15:12;;;;;;;8.10;2.75;;;23.90;70.00;;;;;;5066141;28;20070;-77
2022/12/01 01:17:38;;;;;;;9.20;3.20;;;23.90;69.70;;;;;;5069050;28;20025;-77
2022/12/01 01:20:06;;;;;;;8.95;2.67;;;23.90;69.50;;;;;;5068132;28;20025;-76
2022/12/01 01:22:33;;;;;;;7.20;2.53;;;23.80;69.00;;;;;;5068596;28;20115;-77
2022/12/01 01:25:00;;;;;;;9.18;3.13;;;23.80;68.90;;;;;;5071401;28;20021;-76
2022/12/01 01:27:27;;;;;;;7.60;2.40;;;23.80;68.90;;;;;;5069340;28;20027;-76
2022/12/01 01:29:53;;;;;;;8.63;3.58;;;23.80;69.00;;;;;;5071114;28;20385;-76
2022/12/01 01:32:19;;;;;;;10.55;3.03;;;23.80;69.00;;;;;;5068849;28;20028;-76
2022/12/01 01:34:46;;;;;;;9.68;2.85;;;23.70;68.80;;;;;;5069457;28;20386;-75
2022/12/01 01:37:13;;;;;;;6.70;2.55;;;23.70;68.90;;;;;;5067478;28;20021;-75
2022/12/01 01:39:39;;;;;;;7.82;3.22;;;23.70;68.90;;;;;;5067445;28;20028;-75
2022/12/01 01:42:08;;;;;;;6.50;2.45;;;23.70;68.90;;;;;;5066872;28;20467;-76
2022/12/01 01:44:52;;;;;;;14.70;3.25;;;23.70;69.00;;;;;;5067631;28;20021;-75
2022/12/01 01:47:34;;;;;;;10.63;2.97;;;23.70;69.00;;;;;;5069491;28;20024;-74
2022/12/01 01:50:07;;;;;;;7.95;2.83;;;23.70;69.00;;;;;;5064133;28;20048;-76
2022/12/01 01:52:38;;;;;;;6.45;2.28;;;23.70;69.00;;;;;;5067374;28;20525;-76
2022/12/01 01:55:06;;;;;;;7.20;2.47;;;23.70;69.00;;;;;;5067970;28;20044;-76
2022/12/01 01:57:34;;;;;;;8.85;3.15;;;23.60;69.00;;;;;;5068546;28;20032;-76
2022/12/01 02:00:11;;;;;;;4.60;2.45;;;23.70;69.20;;;;;;5068880;28;20116;-77
2022/12/01 02:02:45;;;;;;;7.20;2.97;;;23.60;69.10;;;;;;5066524;28;20052;-74
2022/12/01 02:05:21;;;;;;;9.90;2.97;;;23.60;69.10;;;;;;5069161;28;20065;-73
2022/12/01 02:07:49;;;;;;;6.28;2.60;;;23.60;69.10;;;;;;5067734;28;20055;-74
2022/12/01 02:10:21;;;;;;;9.40;2.65;;;23.60;69.80;;;;;;5066662;28;20021;-75
2022/12/01 02:13:07;;;;;;;7.63;2.30;;;23.60;69.10;;;;;;5083852;28;20394;-75
2022/12/01 02:15:51;;;;;;;9.93;3.88;;;23.60;69.10;;;;;;5067816;28;20021;-74
2022/12/01 02:18:49;;;;;;;5.15;2.25;;;23.60;69.30;;;;;;5067852;28;20028;-74
2022/12/01 02:22:14;;;;;;;8.38;2.90;;;23.60;69.30;;;;;;5067298;28;20033;-74
2022/12/01 02:24:50;;;;;;;10.27;3.50;;;23.50;69.30;;;;;;5063984;28;20078;-73
2022/12/01 02:27:52;;;;;;;4.97;2.13;;;23.50;69.20;;;;;;5064513;28;20128;-73
2022/12/01 02:30:55;;;;;;;8.98;2.35;;;23.50;69.20;;;;;;5064246;28;20487;-76
2022/12/01 02:33:56;;;;;;;6.63;3.00;;;23.50;69.20;;;;;;5066359;28;20383;-75
2022/12/01 02:36:35;;;;;;;7.57;2.22;;;23.50;69.10;;;;;;5067463;28;20256;-74
2022/12/01 02:39:10;;;;;;;10.18;2.65;;;23.50;69.10;;;;;;5068117;28;20051;-76
2022/12/01 02:41:42;;;;;;;;;;;23.40;69.10;;;;;;5068605;28;20047;-75
2022/12/01 02:44:29;;;;;;;10.02;2.92;;;23.40;69.10;;;;;;5068775;28;19909;-75
2022/12/01 02:47:09;;;;;;;15.23;3.13;;;23.40;69.10;;;;;;5066779;28;20035;-75
2022/12/01 02:49:52;;;;;;;10.45;3.95;;;23.40;69.20;;;;;;5072053;28;20031;-75
2022/12/01 02:52:21;;;;;;;8.25;3.60;;;23.40;69.20;;;;;;5069753;28;20016;-73
2022/12/01 02:54:47;;;;;;;8.43;3.00;;;23.40;69.30;;;;;;5071693;28;20012;-74
2022/12/01 02:57:15;;;;;;;10.35;3.42;;;23.30;69.20;;;;;;5072671;28;20024;-75
2022/12/01 02:59:46;;;;;;;15.85;5.03;;;23.30;69.40;;;;;;5071053;28;20048;-75
2022/12/01 03:02:23;;;;;;;11.07;3.20;;;23.30;69.30;;;;;;5071667;28;20382;-76
2022/12/01 03:05:09;;;;;;;9.05;3.35;;;23.30;69.80;;;;;;5071245;28;20059;-76
2022/12/01 03:07:52;;;;;;;7.03;3.03;;;23.30;69.10;;;;;;5070157;28;20028;-77
2022/12/01 03:10:45;;;;;;;7.80;3.22;;;23.30;68.90;;;;;;5071191;28;20020;-77
2022/12/01 03:13:22;;;;;;;4.85;2.20;;;23.30;68.70;;;;;;5066868;28;20046;-76
2022/12/01 03:16:25;;;;;;;5.60;2.78;;;23.30;68.70;;;;;;5072286;28;20031;-76
2022/12/01 03:19:33;;;;;;;9.55;3.70;;;23.20;68.50;;;;;;5066444;28;20037;-76
2022/12/01 03:22:09;;;;;;;5.53;3.10;;;23.20;68.50;;;;;;5066896;28;20083;-76
2022/12/01 03:24:39;;;;;;;7.18;2.50;;;23.20;68.50;;;;;;5070872;28;20066;-76
2022/12/01 03:27:08;;;;;;;7.57;2.40;;;23.20;68.50;;;;;;5070813;28;20024;-77
2022/12/01 03:29:52;;;;;;;6.50;3.45;;;23.10;68.40;;;;;;5070201;28;20009;-75
2022/12/01 03:32:31;;;;;;;4.38;2.30;;;23.10;68.40;;;;;;5064853;28;20410;-77
2022/12/01 03:35:21;;;;;;;8.43;3.10;;;23.10;68.50;;;;;;5066645;28;20506;-78
2022/12/01 03:38:03;;;;;;;9.38;3.45;;;23.10;68.50;;;;;;5066102;28;20490;-76
2022/12/01 03:40:31;;;;;;;8.90;4.03;;;23.10;68.50;;;;;;5069865;28;20379;-74
2022/12/01 03:43:23;;;;;;;7.40;2.60;;;23.10;68.60;;;;;;5070265;28;20430;-76
2022/12/01 03:46:07;;;;;;;11.82;3.75;;;23.10;68.70;;;;;;5085581;28;20017;-74
2022/12/01 03:48:34;;;;;;;17.42;10.93;;;23.00;68.80;;;;;;5070930;28;20028;-76
2022/12/01 03:51:24;;;;;;;16.83;13.13;;;23.00;68.90;;;;;;5068129;28;20028;-78
2022/12/01 03:53:59;;;;;;;15.02;10.48;;;23.00;69.10;;;;;;5065816;28;20122;-77
2022/12/01 03:56:32;;;;;;;13.02;4.93;;;23.00;69.20;;;;;;5068617;28;20020;-76
2022/12/01 03:59:02;;;;;;;12.02;4.20;;;23.10;69.40;;;;;;5065450;28;20025;-73
2022/12/01 04:02:10;;;;;;;15.02;3.88;;;23.10;70.40;;;;;;5070982;28;20078;-75
2022/12/01 04:05:17;;;;;;;12.75;3.95;;;23.10;70.30;;;;;;5083453;28;20120;-74
2022/12/01 04:08:23;;;;;;;11.45;3.67;;;23.10;70.50;;;;;;5070865;28;20969;-75
2022/12/01 04:14:33;;;;;;;16.25;7.53;;;23.10;70.50;;;;;;5064653;28;19915;-73
2022/12/01 04:17:20;;;;;;;18.30;11.00;;;23.10;70.60;;;;;;5069798;28;20044;-77
2022/12/01 04:19:46;;;;;;;11.98;6.10;;;23.20;71.20;;;;;;5067443;28;20071;-74
2022/12/01 04:22:13;;;;;;;12.80;5.82;;;23.20;72.00;;;;;;5069646;28;20384;-74
2022/12/01 04:24:40;;;;;;;11.48;5.63;;;23.20;72.00;;;;;;5069987;28;20029;-74
2022/12/01 04:27:06;;;;;;;15.10;6.85;;;23.30;71.80;;;;;;5083780;28;20387;-76
2022/12/01 04:29:50;;;;;;;15.15;6.72;;;23.30;71.50;;;;;;5069701;28;20091;-77
2022/12/01 04:32:17;;;;;;;8.75;5.90;;;23.30;71.40;;;;;;5066817;28;20071;-81
2022/12/01 04:34:44;;;;;;;11.88;5.97;;;23.30;71.10;;;;;;5066730;28;20029;-81
2022/12/01 04:37:11;;;;;;;10.13;5.57;;;23.30;71.00;;;;;;5066240;28;20116;-75
2022/12/01 04:39:37;;;;;;;13.35;4.88;;;23.30;70.90;;;;;;5062191;28;20412;-76
2022/12/01 04:42:04;;;;;;;11.38;5.10;;;23.30;70.90;;;;;;5061434;28;20025;-77
2022/12/01 04:44:31;;;;;;;7.30;5.53;;;23.30;70.80;;;;;;5064555;28;20032;-78
2022/12/01 04:46:58;;;;;;;11.02;3.85;;;23.30;70.80;;;;;;5065205;28;20039;-76
2022/12/01 04:49:24;;;;;;;11.93;4.60;;;23.30;70.80;;;;;;5066932;28;20707;-79
2022/12/01 04:51:51;;;;;;;8.40;4.68;;;23.30;70.90;;;;;;5068392;28;20024;-78
2022/12/01 04:54:18;;;;;;;10.23;3.70;;;23.40;70.90;;;;;;5067459;28;20020;-77
2022/12/01 04:56:44;;;;;;;10.93;4.65;;;23.40;70.90;;;;;;5068379;28;20115;-77
2022/12/01 04:59:11;;;;;;;7.60;3.35;;;23.30;70.80;;;;;;5068536;28;20056;-76
2022/12/01 05:01:38;;;;;;;11.75;3.60;;;23.40;70.80;;;;;;5069236;28;20098;-77
2022/12/01 05:04:04;;;;;;;6.95;3.13;;;23.40;71.00;;;;;;5069374;28;20032;-77
2022/12/01 05:06:31;;;;;;;11.77;4.05;;;23.40;71.70;;;;;;5058780;28;20082;-77
2022/12/01 05:09:00;;;;;;;12.85;3.67;;;23.40;71.80;;;;;;5064983;28;20025;-76
2022/12/01 05:11:29;;;;;;;9.63;4.18;;;23.40;71.70;;;;;;5067686;28;20021;-77
2022/12/01 05:13:56;;;;;;;7.05;3.00;;;23.40;71.50;;;;;;5068597;28;20016;-77
2022/12/01 05:16:33;;;;;;;7.13;2.85;;;23.40;71.40;;;;;;5066571;28;20104;-77
2022/12/01 05:21:50;;;;;;;22.55;7.00;;;23.50;72.30;;;;;;5062116;28;20508;-75
2022/12/01 05:24:17;;;;;;;9.55;3.63;;;23.50;72.60;;;;;;5067966;28;20090;-76
2022/12/01 05:26:44;;;;;;;10.50;3.25;;;23.50;72.50;;;;;;5066502;28;20025;-79
2022/12/01 05:29:11;;;;;;;12.90;3.65;;;23.50;72.30;;;;;;5069393;28;20100;-76
2022/12/01 05:31:38;;;;;;;9.23;3.28;;;23.50;72.20;;;;;;5067641;28;20067;-78
2022/12/01 05:34:06;;;;;;;11.55;3.40;;;23.60;72.40;;;;;;5205978;22;20110;-66
2022/12/01 05:36:32;;;;;;;9.55;3.88;;;23.60;72.80;;;;;;5081329;28;20028;-67
2022/12/01 05:38:59;;;;;;;13.85;5.20;;;23.60;72.90;;;;;;5088838;28;20028;-67
2022/12/01 05:41:26;;;;;;;10.95;3.90;;;23.60;73.00;;;;;;5086811;28;20561;-66
2022/12/01 05:43:52;;;;;;;11.18;4.00;;;23.60;72.90;;;;;;5087058;28;20031;-66
2022/12/01 05:46:19;;;;;;;13.27;4.40;;;23.60;72.60;;;;;;5082025;28;20328;-67
2022/12/01 05:48:46;;;;;;;9.52;3.15;;;23.70;72.50;;;;;;5089243;28;20027;-66
2022/12/01 05:51:14;;;;;;;11.43;3.78;;;23.70;72.60;;;;;;5087574;28;20024;-65
2022/12/01 05:53:41;;;;;;;6.95;2.88;;;23.70;72.70;;;;;;5088020;28;20032;-67
2022/12/01 05:56:08;;;;;;;9.57;3.72;;;23.70;72.80;;;;;;5085000;28;20027;-66
2022/12/01 05:58:34;;;;;;;8.30;3.38;;;23.80;72.70;;;;;;5085619;28;20408;-66
2022/12/01 06:01:02;;;;;;;7.32;3.42;;;23.80;72.60;;;;;;5089088;28;20139;-67
2022/12/01 06:03:28;;;;;;;7.40;3.53;;;23.80;72.50;;;;;;5085284;28;20385;-67
2022/12/01 06:05:55;;;;;;;34.42;7.82;;;23.90;72.50;;;;;;5088451;28;20077;-66
2022/12/01 06:08:21;;;;;;;10.65;3.55;;;23.90;72.20;;;;;;5084625;28;20032;-67
2022/12/01 06:10:48;;;;;;;8.98;3.97;;;23.90;72.30;;;;;;5087833;28;20030;-67
2022/12/01 06:13:14;;;;;;;11.40;3.45;;;24.00;72.30;;;;;;5088595;28;20095;-66
2022/12/01 06:15:41;;;;;;;10.50;3.53;;;24.00;72.10;;;;;;5088183;28;20032;-67
2022/12/01 06:18:07;;;;;;;8.88;3.75;;;24.10;72.00;;;;;;5088658;28;20020;-66
2022/12/01 06:20:34;;;;;;;23.98;6.35;;;24.10;71.60;;;;;;5086173;28;20024;-67
2022/12/01 06:23:00;;;;;;;14.80;4.88;;;24.10;71.10;;;;;;5089658;28;20024;-67
2022/12/01 06:25:27;;;;;;;12.98;4.10;;;24.10;70.60;;;;;;5091723;28;20055;-66
2022/12/01 06:27:57;;;;;;;14.95;4.30;;;24.10;70.30;;;;;;5091887;28;20055;-67
2022/12/01 06:30:25;;;;;;;13.50;4.68;;;24.20;70.10;;;;;;5092060;28;20111;-66
2022/12/01 06:32:51;;;;;;;10.52;3.70;;;24.20;69.90;;;;;;5091970;28;20020;-67
2022/12/01 06:35:18;;;;;;;12.93;3.83;;;24.20;69.80;;;;;;5092450;28;20040;-67
2022/12/01 06:37:45;;;;;;;8.90;2.97;;;24.20;69.60;;;;;;5090724;28;20056;-66
2022/12/01 06:40:12;;;;;;;12.48;4.72;;;24.20;69.50;;;;;;5090815;28;20100;-67
2022/12/01 06:42:38;;;;;;;17.98;6.63;;;24.20;69.20;;;;;;5090151;28;20075;-67
2022/12/01 06:45:05;;;;;;;11.68;4.68;;;24.30;69.20;;;;;;5085784;28;20028;-66
2022/12/01 06:47:32;;;;;;;10.38;4.65;;;24.30;69.10;;;;;;5091450;28;20026;-67
2022/12/01 06:49:58;;;;;;;14.07;4.70;;;24.40;69.10;;;;;;5088645;28;20464;-67
2022/12/01 06:52:25;;;;;;;20.05;5.10;;;24.40;69.20;;;;;;5090000;28;20386;-66
2022/12/01 06:54:51;;;;;;;9.27;3.97;;;24.50;69.30;;;;;;5089280;28;20027;-67
2022/12/01 06:57:18;;;;;;;10.73;4.97;;;24.50;69.10;;;;;;5092167;28;20082;-67
2022/12/01 06:59:44;;;;;;;9.15;4.28;;;24.50;68.90;;;;;;5090666;28;20028;-67
2022/12/01 07:02:11;;;;;;;7.40;3.25;;;24.50;68.80;;;;;;5090256;28;20050;-66
2022/12/01 07:04:38;;;;;;;11.50;3.17;;;24.50;68.70;;;;;;5088701;28;20036;-67
2022/12/01 07:07:05;;;;;;;8.65;2.92;;;24.50;68.70;;;;;;5091500;28;20024;-67
2022/12/01 07:09:32;;;;;;;17.30;3.67;;;24.50;68.70;;;;;;5091201;28;20080;-67
2022/12/01 07:11:58;;;;;;;7.88;2.85;;;24.50;68.80;;;;;;5090100;28;20024;-67
2022/12/01 07:14:26;;;;;;;10.32;3.20;;;24.50;68.90;;;;;;5091372;28;20059;-67
2022/12/01 07:16:53;;;;;;;8.75;3.53;;;24.50;68.90;;;;;;5085047;28;20024;-67
2022/12/01 07:19:19;;;;;;;8.82;3.28;;;24.50;68.80;;;;;;5091723;28;20073;-67
2022/12/01 07:21:46;;;;;;;9.13;2.90;;;24.60;68.80;;;;;;5089508;28;20119;-67
2022/12/01 07:24:13;;;;;;;10.10;2.80;;;24.60;68.80;;;;;;5090869;28;20093;-67
2022/12/01 07:26:40;;;;;;;15.52;4.22;;;24.60;68.80;;;;;;5090275;28;20457;-67
2022/12/01 07:29:08;;;;;;;9.18;3.38;;;24.60;68.70;;;;;;5087809;28;20540;-67
2022/12/01 07:31:35;;;;;;;14.93;4.18;;;24.60;68.60;;;;;;5091160;28;20108;-67
2022/12/01 07:34:02;;;;;;;11.57;4.13;;;24.70;68.70;;;;;;5086502;28;20032;-67
2022/12/01 07:36:28;;;;;;;11.63;5.00;;;24.70;68.60;;;;;;5090982;28;20081;-67
2022/12/01 07:38:55;;;;;;;12.07;4.28;;;24.70;68.70;;;;;;5090539;28;20020;-67
2022/12/01 07:41:22;;;;;;;12.07;4.82;;;24.70;68.70;;;;;;5090453;28;20508;-66
2022/12/01 07:43:48;;;;;;;9.65;2.80;;;24.80;68.70;;;;;;5089992;28;20028;-67
2022/12/01 07:46:17;;;;;;;9.13;3.47;;;24.70;68.40;;;;;;5086470;28;20375;-67
2022/12/01 07:48:44;;;;;;;10.80;3.22;;;24.80;68.40;;;;;;5089503;28;20024;-67
2022/12/01 07:51:15;;;;;;;7.05;3.30;;;24.80;68.10;;;;;;5089144;28;20444;-67
2022/12/01 07:53:45;;;;;;;16.40;3.45;;;24.80;68.10;;;;;;5088289;28;20020;-67
2022/12/01 07:56:12;;;;;;;11.07;3.50;;;24.80;67.90;;;;;;5084844;28;20028;-67
2022/12/01 07:58:39;;;;;;;7.38;3.47;;;24.80;67.70;;;;;;5090101;28;20059;-67
2022/12/01 08:01:11;;;;;;;5.72;2.55;;;24.90;67.60;;;;;;5088972;28;20513;-67
2022/12/01 08:03:38;;;;;;;7.20;2.78;;;24.90;67.30;;;;;;5087788;28;20538;-67
2022/12/01 08:06:06;;;;;;;7.38;3.70;;;24.90;67.10;;;;;;5085946;28;20016;-67
2022/12/01 08:08:35;;;;;;;6.97;2.50;;;24.90;67.00;;;;;;5088937;28;20016;-67
2022/12/01 08:11:04;;;;;;;10.32;4.53;;;25.00;66.90;;;;;;5088741;28;20020;-67
2022/12/01 08:13:31;;;;;;;9.52;4.03;;;25.00;66.90;;;;;;5088409;28;20024;-67
2022/12/01 08:15:58;;;;;;;5.13;2.70;;;25.00;66.70;;;;;;5090898;28;20129;-67
2022/12/01 08:18:24;;;;;;;5.22;2.30;;;25.10;66.60;;;;;;5090218;28;20024;-67
2022/12/01 08:20:55;;;;;;;8.00;3.55;;;25.10;66.50;;;;;;5088692;28;20490;-67
2022/12/01 08:23:21;;;;;;;6.80;2.65;;;25.20;66.40;;;;;;5083728;28;20660;-67
2022/12/01 08:25:48;;;;;;;12.23;3.50;;;25.20;66.00;;;;;;5105294;28;20052;-67
2022/12/01 08:28:14;;;;;;;6.45;2.20;;;25.20;65.70;;;;;;5090218;28;20438;-67
2022/12/01 08:30:41;;;;;;;5.28;2.50;;;25.20;65.50;;;;;;5087764;28;20084;-67
2022/12/01 08:33:07;;;;;;;6.13;2.13;;;25.30;65.40;;;;;;5089171;28;20021;-67
2022/12/01 08:35:36;;;;;;;11.00;3.35;;;25.30;65.00;;;;;;5088759;28;20182;-67
2022/12/01 08:38:03;;;;;;;7.93;3.05;;;25.40;64.80;;;;;;5086566;28;20016;-67
2022/12/01 08:40:29;;;;;;;6.22;2.35;;;25.50;64.50;;;;;;5088627;28;20019;-67
2022/12/01 08:42:57;;;;;;;7.50;3.97;;;25.50;64.30;;;;;;5088097;28;20032;-67
2022/12/01 08:45:23;;;;;;;5.40;2.97;;;25.50;64.00;;;;;;5089549;28;20028;-67
2022/12/01 08:47:52;;;;;;;6.68;2.53;;;25.60;64.60;;;;;;5085682;28;20016;-68
2022/12/01 08:50:18;;;;;;;7.07;2.00;;;25.70;63.80;;;;;;5089260;28;20024;-67
2022/12/01 08:52:45;;;;;;;14.85;5.43;;;25.70;63.80;;;;;;5090506;28;20020;-67
2022/12/01 08:55:11;;;;;;;4.43;2.53;;;25.80;63.70;;;;;;5087785;28;20366;-67
2022/12/01 08:57:38;;;;;;;4.95;2.15;;;25.80;63.80;;;;;;5085974;28;20028;-67
2022/12/01 09:00:05;;;;;;;6.60;3.03;;;25.90;63.90;;;;;;5085310;28;20020;-68
2022/12/01 09:02:31;;;;;;;6.10;2.08;;;25.90;63.90;;;;;;5089951;28;20051;-67
2022/12/01 09:04:58;;;;;;;7.82;2.33;;;25.90;63.70;;;;;;5087493;28;20382;-67
2022/12/01 09:07:24;;;;;;;6.15;3.25;;;26.00;63.80;;;;;;5088625;28;20051;-68
2022/12/01 09:09:51;;;;;;;6.30;2.20;;;26.00;63.90;;;;;;5088579;28;20028;-67
2022/12/01 09:12:17;;;;;;;9.88;2.42;;;26.10;63.80;;;;;;5089203;28;20486;-68
2022/12/01 09:14:48;;;;;;;4.55;2.90;;;26.10;63.80;;;;;;5089589;28;20107;-67
2022/12/01 09:17:16;;;;;;;6.00;2.90;;;26.10;63.70;;;;;;5087324;28;20066;-67
2022/12/01 09:19:43;;;;;;;3.80;2.35;;;26.10;63.60;;;;;;5089155;28;20481;-68
2022/12/01 09:22:11;;;;;;;15.82;4.07;;;26.10;63.60;;;;;;5086824;28;20144;-68
2022/12/01 09:24:38;;;;;;;7.20;3.00;;;26.10;64.00;;;;;;5090438;28;20058;-67
2022/12/01 09:27:05;;;;;;;5.22;2.67;;;26.20;64.20;;;;;;5088582;28;20089;-67
2022/12/01 09:29:31;;;;;;;5.75;3.28;;;26.20;64.10;;;;;;5087898;28;20462;-68
2022/12/01 09:31:59;;;;;;;13.40;4.20;;;26.20;64.10;;;;;;5085878;28;20017;-68
2022/12/01 09:34:27;;;;;;;9.55;2.83;;;26.30;64.00;;;;;;5086474;28;20032;-68
2022/12/01 09:36:56;;;;;;;3.85;2.30;;;26.30;63.70;;;;;;5085804;28;20043;-67
2022/12/01 09:39:23;;;;;;;4.45;2.08;;;26.30;63.30;;;;;;5084408;28;20384;-67
2022/12/01 09:41:53;;;;;;;10.90;2.97;;;26.40;64.00;;;;;;5088841;28;20036;-68
2022/12/01 09:44:21;;;;;;;10.77;3.33;;;26.40;63.50;;;;;;5087013;28;20012;-67
2022/12/01 09:46:57;;;;;;;16.25;3.55;;;26.50;64.00;;;;;;5086517;28;20058;-67
2022/12/01 09:49:37;;;;;;;6.38;2.50;;;26.50;63.80;;;;;;5086079;28;20021;-68
2022/12/01 09:52:03;;;;;;;6.53;2.45;;;26.50;63.80;;;;;;5087799;28;20089;-67
2022/12/01 09:54:30;;;;;;;7.32;2.35;;;26.50;63.60;;;;;;5088089;28;20028;-67
2022/12/01 09:56:59;;;;;;;7.70;2.30;;;26.50;63.60;;;;;;5087761;28;20343;-68
2022/12/01 09:59:32;;;;;;;6.20;2.92;;;26.60;63.60;;;;;;5087538;28;20533;-67
2022/12/01 10:02:03;;;;;;;7.90;2.43;;;26.60;63.30;;;;;;5084505;28;20123;-67
2022/12/01 10:04:41;;;;;;;12.65;2.75;;;26.60;63.20;;;;;;5085477;28;20027;-68
2022/12/01 10:07:23;;;;;;;7.35;2.67;;;26.60;62.90;;;;;;5089611;28;20020;-67
2022/12/01 10:10:05;;;;;;;4.47;1.90;;;26.70;62.60;;;;;;5085320;28;20028;-67
2022/12/01 10:12:34;;;;;;;5.28;2.80;;;26.70;62.20;;;;;;5087594;28;20012;-67
2022/12/01 10:15:30;;;;;;;5.78;2.35;;;26.80;61.80;;;;;;5089032;28;20042;-67
2022/12/01 10:18:14;;;;;;;5.78;2.30;;;26.80;61.50;;;;;;5077628;28;20082;-68
2022/12/01 10:20:45;;;;;;;3.65;2.13;;;26.80;61.40;;;;;;5083760;28;20268;-68
2022/12/01 10:23:38;;;;;;;6.38;2.13;;;26.90;61.30;;;;;;5086967;28;20504;-67
2022/12/01 10:26:40;;;;;;;13.48;2.88;;;26.90;61.30;;;;;;5084862;28;20044;-67
2022/12/01 10:29:24;;;;;;;6.32;2.30;;;26.90;61.00;;;;;;5068704;28;20044;-68
2022/12/01 10:31:51;;;;;;;5.20;2.42;;;27.00;60.90;;;;;;5085974;28;20413;-68
2022/12/01 10:34:32;;;;;;;7.18;2.80;;;27.00;60.60;;;;;;5084761;28;20491;-67
2022/12/01 10:36:59;;;;;;;9.75;3.33;;;27.00;60.40;;;;;;5088803;28;20028;-67
2022/12/01 10:39:42;;;;;;;4.80;2.38;;;27.00;60.30;;;;;;5086601;28;20016;-68
2022/12/01 10:42:14;;;;;;;5.93;2.75;;;26.90;60.20;;;;;;5083446;28;20120;-68
2022/12/01 10:44:41;;;;;;;6.43;2.13;;;26.90;60.30;;;;;;5086118;28;20069;-68
2022/12/01 10:47:33;;;;;;;4.43;2.20;;;26.90;60.20;;;;;;5085652;28;20015;-68
2022/12/01 10:50:02;;;;;;;4.97;2.05;;;26.90;60.10;;;;;;5080063;28;20074;-68
2022/12/01 10:52:39;;;;;;;6.28;2.88;;;26.80;60.00;;;;;;5085009;28;20743;-69
2022/12/01 10:55:28;;;;;;;4.00;2.03;;;26.80;59.90;;;;;;5085882;28;21106;-68
2022/12/01 10:57:58;;;;;;;7.93;2.53;;;26.80;60.00;;;;;;5086966;28;20111;-68
2022/12/01 11:00:35;;;;;;;4.85;2.40;;;26.90;60.10;;;;;;5084129;28;20013;-67
2022/12/01 11:03:02;;;;;;;4.82;1.88;;;26.90;59.80;;;;;;5087432;28;20083;-67
2022/12/01 11:05:41;;;;;;;8.27;2.25;;;26.90;59.40;;;;;;5082328;28;20024;-67
2022/12/01 11:08:22;;;;;;;4.82;2.42;;;27.00;59.40;;;;;;5087458;28;20028;-67
2022/12/01 11:10:49;;;;;;;7.13;1.80;;;27.10;59.30;;;;;;5091586;28;20085;-68
2022/12/01 11:13:27;;;;;;;4.00;1.65;;;27.00;59.00;;;;;;5090930;28;20474;-68
2022/12/01 11:16:02;;;;;;;7.40;3.55;;;27.10;58.60;;;;;;5086396;28;20016;-67
2022/12/01 11:18:32;;;;;;;12.90;2.08;;;27.20;58.10;;;;;;5090094;28;20028;-68
2022/12/01 11:21:27;;;;;;;7.88;2.47;;;27.20;58.10;;;;;;5088318;28;20024;-67
2022/12/01 11:23:55;;;;;;;7.82;2.60;;;27.20;58.50;;;;;;5090542;28;20020;-68
2022/12/01 11:26:27;;;;;;;4.43;2.22;;;27.20;58.50;;;;;;5090834;28;20048;-68
2022/12/01 11:28:55;;;;;;;4.30;2.33;;;27.20;58.60;;;;;;5089485;28;20103;-67
2022/12/01 11:31:34;;;;;;;6.30;2.40;;;27.20;58.50;;;;;;5089729;28;20032;-68
2022/12/01 11:34:01;;;;;;;4.70;2.15;;;27.30;58.60;;;;;;5089502;28;20044;-68
2022/12/01 11:36:43;;;;;;;8.43;1.85;;;27.30;58.50;;;;;;5091228;28;20031;-68
2022/12/01 11:39:20;;;;;;;7.45;2.67;;;27.30;58.40;;;;;;5089886;28;20024;-68
2022/12/01 11:41:47;;;;;;;5.22;2.38;;;27.40;58.10;;;;;;5089902;28;20028;-68
2022/12/01 11:44:19;;;;;;;6.97;3.28;;;27.40;58.30;;;;;;5089713;28;20070;-68
2022/12/01 11:46:46;;;;;;;5.15;2.47;;;27.40;58.40;;;;;;5091328;28;20119;-68
2022/12/01 11:49:20;;;;;;;4.28;1.63;;;27.50;58.40;;;;;;5084055;28;20016;-68
2022/12/01 11:51:46;;;;;;;3.75;2.13;;;27.50;57.60;;;;;;5090231;28;20456;-67
2022/12/01 11:54:25;;;;;;;10.13;2.22;;;27.50;57.90;;;;;;5088262;28;20018;-68
2022/12/01 11:56:53;;;;;;;8.98;2.08;;;27.50;58.10;;;;;;5086166;28;20062;-68
2022/12/01 11:59:26;;;;;;;3.22;1.75;;;27.60;58.20;;;;;;5086142;28;20125;-68
2022/12/01 12:02:13;;;;;;;4.57;2.60;;;27.60;58.30;;;;;;5089377;28;20550;-68
2022/12/01 12:05:23;;;;;;;6.45;1.70;;;27.60;58.50;;;;;;5089441;28;20020;-68
2022/12/01 12:08:06;;;;;;;3.38;2.28;;;27.60;59.00;;;;;;5089383;28;20482;-68
2022/12/01 12:10:40;;;;;;;4.60;1.52;;;27.50;59.70;;;;;;5089180;28;20111;-67
2022/12/01 12:13:26;;;;;;;5.50;1.73;;;27.60;60.40;;;;;;5089298;28;20032;-68
2022/12/01 12:16:00;;;;;;;7.63;3.00;;;27.60;60.60;;;;;;5086753;28;20032;-68
2022/12/01 12:18:45;;;;;;;;;;;27.60;60.70;;;;;;5088539;28;20044;-67
2022/12/01 12:21:49;;;;;;;7.00;2.70;;;27.60;60.70;;;;;;5087942;28;19911;-68
2022/12/01 12:24:40;;;;;;;10.70;2.80;;;27.70;61.00;;;;;;5087093;28;20027;-67
2022/12/01 12:27:25;;;;;;;9.77;2.95;;;27.70;61.20;;;;;;5085406;28;20091;-68
2022/12/01 12:30:21;;;;;;;12.45;2.20;;;27.80;61.10;;;;;;5090274;28;20028;-68
2022/12/01 12:33:05;;;;;;;;;;;27.90;61.20;;;;;;5089585;28;20452;-67
2022/12/01 12:35:53;;;;;;;8.10;2.28;;;27.90;61.20;;;;;;5086774;28;19920;-67
2022/12/01 12:38:53;;;;;;;8.13;2.05;;;28.00;60.70;;;;;;5090225;28;20488;-68
2022/12/01 12:41:39;;;;;;;8.18;2.38;;;28.00;60.60;;;;;;5086769;28;20371;-67
2022/12/01 12:44:41;;;;;;;10.38;2.80;;;28.00;60.80;;;;;;5077967;28;20038;-68
2022/12/01 12:47:40;;;;;;;10.65;2.90;;;28.00;60.80;;;;;;5087677;28;20024;-67
2022/12/01 12:50:07;;;;;;;10.57;2.72;;;28.00;61.10;;;;;;5085719;28;20128;-68
2022/12/01 12:52:47;;;;;;;5.72;2.67;;;28.00;61.40;;;;;;5088413;28;20603;-68
2022/12/01 12:55:38;;;;;;;10.32;1.95;;;28.00;61.30;;;;;;5089297;28;20027;-67
2022/12/01 12:58:10;;;;;;;7.53;1.90;;;28.00;61.20;;;;;;5078361;28;20024;-67
2022/12/01 13:00:42;;;;;;;6.18;2.22;;;28.00;61.70;;;;;;5088857;28;20032;-68
2022/12/01 13:03:30;;;;;;;7.15;2.47;;;28.10;61.50;;;;;;5087349;28;20032;-68
2022/12/01 13:06:31;;;;;;;13.73;5.18;;;28.00;61.40;;;;;;5086929;28;20416;-68
2022/12/01 13:09:10;;;;;;;6.43;2.65;;;28.00;61.80;;;;;;5049607;28;20059;-68
2022/12/01 13:11:48;;;;;;;7.97;2.25;;;28.10;61.80;;;;;;5086874;28;20047;-68
2022/12/01 13:14:20;;;;;;;12.10;4.07;;;28.10;61.50;;;;;;5088403;28;20476;-68
2022/12/01 13:16:50;;;;;;;12.02;2.70;;;28.10;61.40;;;;;;5088197;28;20055;-68
2022/12/01 13:19:31;;;;;;;5.13;2.10;;;28.10;61.10;;;;;;5087844;28;20413;-68
2022/12/01 13:21:59;;;;;;;9.00;2.80;;;28.10;60.90;;;;;;5086190;28;20024;-68